createdAt,value
2018-08-03T00:01:13.238Z,25.14
2018-08-03T00:04:16.763Z,25.23
2018-08-03T00:07:20.385Z,25.14
2018-08-03T00:10:27.029Z,25.13
2018-08-03T00:13:31.036Z,25.05
2018-08-03T00:16:34.759Z,25.01
2018-08-03T00:19:38.816Z,25.04
2018-08-03T00:22:42.415Z,24.96
2018-08-03T00:25:46.006Z,24.90
2018-08-03T00:28:49.617Z,24.86
2018-08-03T00:31:54.837Z,24.83
2018-08-03T00:34:58.402Z,24.84
2018-08-03T00:38:02.065Z,24.75
2018-08-03T00:41:05.733Z,24.71
2018-08-03T00:44:09.448Z,24.66
2018-08-03T00:47:13.857Z,24.64
2018-08-03T00:50:17.564Z,24.64
2018-08-03T00:53:21.443Z,24.65
2018-08-03T00:56:25.811Z,24.51
2018-08-03T00:59:29.409Z,24.57
2018-08-03T01:02:33.108Z,24.54
2018-08-03T01:05:39.045Z,24.54
2018-08-03T01:08:42.678Z,24.53
2018-08-03T01:11:46.334Z,24.66
2018-08-03T01:14:50.295Z,24.70
2018-08-03T01:17:53.928Z,24.67
2018-08-03T01:20:57.560Z,24.71
2018-08-03T01:24:01.275Z,24.80
2018-08-03T01:27:04.888Z,24.81
2018-08-03T01:30:10.198Z,24.76
2018-08-03T01:33:14.054Z,24.74
2018-08-03T01:36:17.753Z,24.71
2018-08-03T01:39:21.345Z,24.74
2018-08-03T01:42:26.983Z,24.73
2018-08-03T01:45:31.201Z,24.79
2018-08-03T01:48:35.128Z,24.66
2018-08-03T01:51:38.812Z,24.65
2018-08-03T01:54:42.457Z,24.63
2018-08-03T01:57:46.664Z,24.56
2018-08-03T02:00:50.268Z,24.56
2018-08-03T02:03:54.067Z,24.51
2018-08-03T02:06:58.869Z,24.57
2018-08-03T02:10:02.569Z,24.56
2018-08-03T02:13:06.126Z,24.55
2018-08-03T02:16:09.826Z,24.51
2018-08-03T02:19:15.437Z,24.56
2018-08-03T02:22:19.103Z,24.54
2018-08-03T02:25:22.783Z,24.62
2018-08-03T02:28:26.294Z,24.57
2018-08-03T02:31:29.960Z,24.61
2018-08-03T02:34:33.620Z,24.56
2018-08-03T02:37:37.871Z,24.62
2018-08-03T02:40:46.704Z,24.64
2018-08-03T02:43:50.622Z,24.64
2018-08-03T02:46:54.879Z,24.62
2018-08-03T02:50:01.622Z,24.62
2018-08-03T02:53:05.810Z,24.58
2018-08-03T02:56:13.175Z,24.67
2018-08-03T02:59:22.715Z,24.78
2018-08-03T03:02:27.271Z,24.85
2018-08-03T03:05:33.160Z,24.82
2018-08-03T03:08:36.868Z,24.81
2018-08-03T03:11:45.519Z,24.86
2018-08-03T03:14:51.596Z,24.90
2018-08-03T03:17:57.170Z,24.96
2018-08-03T03:21:02.260Z,24.99
2018-08-03T03:24:09.219Z,25.00
2018-08-03T03:27:14.468Z,24.95
2018-08-03T03:30:20.431Z,25.17
2018-08-03T03:33:25.673Z,25.03
2018-08-03T03:36:30.444Z,24.90
2018-08-03T03:39:36.774Z,24.95
2018-08-03T03:42:44.697Z,24.95
2018-08-03T03:45:49.349Z,24.95
2018-08-03T03:48:53.060Z,24.94
2018-08-03T03:51:57.095Z,25.03
2018-08-03T03:55:01.438Z,24.98
2018-08-03T03:58:05.472Z,24.92
2018-08-03T04:01:10.343Z,24.89
2018-08-03T04:04:24.847Z,24.65
2018-08-03T04:07:34.492Z,24.64
2018-08-03T04:10:39.767Z,24.70
2018-08-03T04:13:50.184Z,24.68
2018-08-03T04:16:58.445Z,24.85
2018-08-03T04:23:13.833Z,24.87
2018-08-03T04:26:19.039Z,24.72
2018-08-03T04:29:25.432Z,24.67
2018-08-03T04:32:32.494Z,24.72
2018-08-03T04:35:41.430Z,24.76
2018-08-03T04:38:48.169Z,24.79
2018-08-03T04:41:55.493Z,24.93
2018-08-03T04:45:01.024Z,25.10
2018-08-03T04:48:06.852Z,24.95
2018-08-03T04:51:12.139Z,24.93
2018-08-03T04:54:19.246Z,25.14
2018-08-03T04:57:25.582Z,25.04
2018-08-03T05:00:33.457Z,24.95
2018-08-03T05:03:40.268Z,24.99
2018-08-03T05:06:46.605Z,24.92
2018-08-03T05:09:53.871Z,24.94
2018-08-03T05:13:03.098Z,24.71
2018-08-03T05:16:08.847Z,24.58
2018-08-03T05:19:15.121Z,24.57
2018-08-03T05:25:36.430Z,24.51
2018-08-03T05:28:40.871Z,24.49
2018-08-03T05:31:45.793Z,24.60
2018-08-03T05:34:54.644Z,24.49
2018-08-03T05:41:23.675Z,24.60
2018-08-03T05:44:29.743Z,24.82
2018-08-03T05:47:33.358Z,24.84
2018-08-03T05:50:38.032Z,24.45
2018-08-03T05:53:44.165Z,24.46
2018-08-03T05:56:47.697Z,24.59
2018-08-03T05:59:51.616Z,24.70
2018-08-03T06:02:56.136Z,24.74
2018-08-03T06:05:59.691Z,24.85
2018-08-03T06:09:03.765Z,24.85
2018-08-03T06:12:07.343Z,24.88
2018-08-03T06:15:12.526Z,24.84
2018-08-03T06:18:16.003Z,25.00
2018-08-03T06:21:20.559Z,24.95
2018-08-03T06:24:24.759Z,25.08
2018-08-03T06:27:28.228Z,25.16
2018-08-03T06:30:31.804Z,25.12
2018-08-03T06:33:37.242Z,25.25
2018-08-03T06:36:40.925Z,25.22
2018-08-03T06:39:45.390Z,25.26
2018-08-03T06:42:48.819Z,25.17
2018-08-03T06:45:52.354Z,25.22
2018-08-03T06:48:55.857Z,25.22
2018-08-03T06:52:01.540Z,25.26
2018-08-03T06:55:05.072Z,25.38
2018-08-03T06:58:08.603Z,25.64
2018-08-03T07:01:13.332Z,25.62
2018-08-03T07:04:17.768Z,25.81
2018-08-03T07:07:21.485Z,25.80
2018-08-03T07:10:24.970Z,25.98
2018-08-03T07:13:34.962Z,26.09
2018-08-03T07:16:38.597Z,26.07
2018-08-03T07:19:42.131Z,26.08
2018-08-03T07:22:45.869Z,26.10
2018-08-03T07:25:49.725Z,26.07
2018-08-03T07:28:53.628Z,26.11
2018-08-03T07:31:58.474Z,26.10
2018-08-03T07:35:01.946Z,26.22
2018-08-03T07:38:05.572Z,26.37
2018-08-03T07:41:09.286Z,26.45
2018-08-03T07:44:16.710Z,26.54
2018-08-03T07:47:21.490Z,26.72
2018-08-03T07:50:26.036Z,26.78
2018-08-03T07:53:30.717Z,26.93
2018-08-03T07:56:34.248Z,27.11
2018-08-03T07:59:40.601Z,27.21
2018-08-03T08:02:44.328Z,27.37
2018-08-03T08:05:47.814Z,27.48
2018-08-03T08:08:51.585Z,27.63
2018-08-03T08:11:55.184Z,27.78
2018-08-03T08:14:58.731Z,28.06
2018-08-03T08:18:02.230Z,28.11
2018-08-03T08:21:05.813Z,28.20
2018-08-03T08:24:09.312Z,28.46
2018-08-03T08:27:14.914Z,28.61
2018-08-03T08:30:18.514Z,28.74
2018-08-03T08:33:22.066Z,29.03
2018-08-03T08:36:25.621Z,29.11
2018-08-03T08:39:29.068Z,29.22
2018-08-03T08:42:44.457Z,29.44
2018-08-03T08:45:48.161Z,29.70
2018-08-03T08:48:53.045Z,29.84
2018-08-03T08:51:56.515Z,30.01
2018-08-03T08:55:00.139Z,30.15
2018-08-03T08:58:04.420Z,30.34
2018-08-03T09:01:07.904Z,30.60
2018-08-03T09:04:11.465Z,30.88
2018-08-03T09:07:15.380Z,30.83
2018-08-03T09:10:19.407Z,30.87
2018-08-03T09:13:23.146Z,31.16
2018-08-03T09:16:27.815Z,31.48
2018-08-03T09:19:31.611Z,31.57
2018-08-03T09:22:35.496Z,31.70
2018-08-03T09:25:40.354Z,31.81
2018-08-03T09:28:45.630Z,32.14
2018-08-03T09:31:49.226Z,32.25
2018-08-03T09:34:52.920Z,32.21
2018-08-03T09:37:57.591Z,32.48
2018-08-03T09:41:01.856Z,32.75
2018-08-03T09:44:05.903Z,32.82
2018-08-03T09:47:11.445Z,32.90
2018-08-03T09:50:15.081Z,33.06
2018-08-03T09:53:18.741Z,33.10
2018-08-03T09:56:22.564Z,33.25
2018-08-03T09:59:26.247Z,33.44
2018-08-03T10:02:30.016Z,33.70
2018-08-03T10:05:33.707Z,33.57
2018-08-03T10:08:39.494Z,33.62
2018-08-03T10:11:43.052Z,34.03
2018-08-03T10:14:46.630Z,33.99
2018-08-03T10:17:50.331Z,34.10
2018-08-03T10:20:54.553Z,34.11
2018-08-03T10:23:58.052Z,34.39
2018-08-03T10:27:01.533Z,34.60
2018-08-03T10:30:05.821Z,34.75
2018-08-03T10:33:09.400Z,34.55
2018-08-03T10:36:12.986Z,34.98
2018-08-03T10:39:17.214Z,35.01
2018-08-03T10:42:21.611Z,35.10
2018-08-03T10:45:25.371Z,35.24
2018-08-03T10:48:28.896Z,35.23
2018-08-03T10:51:32.519Z,35.27
2018-08-03T10:54:36.253Z,35.31
2018-08-03T10:57:41.597Z,35.47
2018-08-03T11:00:45.207Z,35.41
2018-08-03T11:03:48.779Z,35.63
2018-08-03T11:06:52.367Z,35.84
2018-08-03T11:09:55.820Z,35.75
2018-08-03T11:13:00.047Z,35.59
2018-08-03T11:16:04.276Z,36.02
2018-08-03T11:19:07.856Z,36.07
2018-08-03T11:22:11.359Z,36.10
2018-08-03T11:25:15.532Z,36.04
2018-08-03T11:28:19.119Z,36.18
2018-08-03T11:31:22.702Z,36.03
2018-08-03T11:34:26.803Z,35.81
2018-08-03T11:37:31.769Z,35.51
2018-08-03T11:40:37.291Z,35.85
2018-08-03T11:43:40.835Z,36.09
2018-08-03T11:46:45.474Z,35.83
2018-08-03T11:49:49.059Z,35.95
2018-08-03T11:52:52.686Z,36.26
2018-08-03T11:55:56.165Z,36.47
2018-08-03T11:59:00.191Z,36.19
2018-08-03T12:02:03.896Z,36.29
2018-08-03T12:05:08.359Z,36.21
2018-08-03T12:08:12.280Z,36.33
2018-08-03T12:11:16.726Z,36.08
2018-08-03T12:14:21.629Z,35.91
2018-08-03T12:17:25.372Z,36.01
2018-08-03T12:20:28.941Z,36.40
2018-08-03T12:23:33.048Z,36.50
2018-08-03T12:26:36.666Z,36.66
2018-08-03T12:29:42.258Z,36.60
2018-08-03T12:32:47.963Z,36.78
2018-08-03T12:35:51.449Z,36.46
2018-08-03T12:38:55.000Z,36.44
2018-08-03T12:41:59.488Z,36.38
2018-08-03T12:45:02.979Z,36.30
2018-08-03T12:48:06.477Z,36.31
2018-08-03T12:51:10.078Z,36.51
2018-08-03T12:54:13.662Z,36.37
2018-08-03T12:57:17.242Z,36.43
2018-08-03T13:00:20.756Z,36.61
2018-08-03T13:03:25.383Z,36.56
2018-08-03T13:06:28.940Z,36.54
2018-08-03T13:09:33.976Z,36.30
2018-08-03T13:12:37.841Z,36.13
2018-08-03T13:15:42.356Z,36.21
2018-08-03T13:18:46.682Z,36.11
2018-08-03T13:21:50.498Z,36.36
2018-08-03T13:24:54.662Z,36.27
2018-08-03T13:27:58.418Z,36.30
2018-08-03T13:31:03.995Z,36.26
2018-08-03T13:34:07.506Z,36.52
2018-08-03T13:37:11.091Z,36.62
2018-08-03T13:40:15.660Z,35.97
2018-08-03T13:43:20.130Z,35.92
2018-08-03T13:46:25.371Z,36.17
2018-08-03T13:49:28.973Z,36.40
2018-08-03T13:52:33.628Z,36.32
2018-08-03T13:55:37.111Z,36.15
2018-08-03T13:58:43.480Z,36.03
2018-08-03T14:01:58.221Z,36.17
2018-08-03T14:05:03.205Z,36.01
2018-08-03T14:08:06.783Z,35.77
2018-08-03T14:11:11.269Z,36.04
2018-08-03T14:14:15.835Z,35.89
2018-08-03T14:17:19.340Z,35.64
2018-08-03T14:20:22.805Z,35.48
2018-08-03T14:23:26.491Z,35.50
2018-08-03T14:26:30.322Z,35.45
2018-08-03T14:29:34.940Z,35.10
2018-08-03T14:32:38.469Z,35.28
2018-08-03T14:35:43.861Z,35.31
2018-08-03T14:38:47.414Z,35.24
2018-08-03T14:41:50.915Z,35.25
2018-08-03T14:44:55.308Z,35.70
2018-08-03T14:47:58.874Z,34.99
2018-08-03T14:51:02.457Z,34.74
2018-08-03T14:54:07.004Z,34.58
2018-08-03T14:57:10.478Z,34.70
2018-08-03T15:00:13.959Z,34.53
2018-08-03T15:03:20.065Z,34.73
2018-08-03T15:06:24.346Z,34.51
2018-08-03T15:09:28.313Z,34.44
2018-08-03T15:12:31.772Z,34.22
2018-08-03T15:15:35.551Z,34.24
2018-08-03T15:18:39.092Z,34.31
2018-08-03T15:21:42.704Z,34.27
2018-08-03T15:24:46.180Z,34.35
2018-08-03T15:27:49.768Z,34.31
2018-08-03T15:30:53.416Z,34.15
2018-08-03T15:33:57.154Z,34.25
2018-08-03T15:37:00.720Z,34.03
2018-08-03T15:40:05.277Z,34.13
2018-08-03T15:43:08.750Z,34.14
2018-08-03T15:46:12.869Z,34.14
2018-08-03T15:49:16.604Z,34.25
2018-08-03T15:52:20.099Z,34.18
2018-08-03T15:55:24.351Z,34.25
2018-08-03T15:58:27.842Z,34.20
2018-08-03T16:01:32.328Z,34.04
2018-08-03T16:04:35.808Z,33.93
2018-08-03T16:07:39.400Z,34.00
2018-08-03T16:10:43.573Z,33.83
2018-08-03T16:13:47.215Z,33.88
2018-08-03T16:16:50.721Z,33.66
2018-08-03T16:19:54.391Z,33.63
2018-08-03T16:22:59.563Z,33.54
2018-08-03T16:26:03.040Z,33.26
2018-08-03T16:29:06.616Z,33.41
2018-08-03T16:32:12.629Z,33.30
2018-08-03T16:35:17.053Z,33.05
2018-08-03T16:38:21.630Z,33.11
2018-08-03T16:41:26.308Z,32.97
2018-08-03T16:44:29.922Z,32.97
2018-08-03T16:47:33.443Z,32.92
2018-08-03T16:50:37.752Z,32.88
2018-08-03T16:53:42.838Z,32.75
2018-08-03T16:56:51.557Z,32.75
2018-08-03T16:59:55.844Z,32.72
2018-08-03T17:03:00.031Z,32.74
2018-08-03T17:06:04.661Z,32.61
2018-08-03T17:09:11.753Z,32.41
2018-08-03T17:12:15.521Z,32.35
2018-08-03T17:15:20.221Z,32.35
2018-08-03T17:18:23.800Z,32.23
2018-08-03T17:21:29.244Z,32.14
2018-08-03T17:24:34.682Z,32.05
2018-08-03T17:27:38.612Z,31.95
2018-08-03T17:30:42.407Z,31.88
2018-08-03T17:33:47.387Z,31.72
2018-08-03T17:36:51.769Z,31.59
2018-08-03T17:39:56.945Z,31.57
2018-08-03T17:43:00.452Z,31.51
2018-08-03T17:46:06.574Z,31.51
2018-08-03T17:49:11.004Z,31.35
2018-08-03T17:52:15.235Z,31.39
2018-08-03T17:55:19.567Z,31.23
2018-08-03T17:58:23.453Z,31.15
2018-08-03T18:01:28.001Z,31.03
2018-08-03T18:04:33.044Z,31.01
2018-08-03T18:07:39.958Z,30.97
2018-08-03T18:10:43.625Z,30.75
2018-08-03T18:13:48.971Z,30.63
2018-08-03T18:16:56.011Z,30.66
2018-08-03T18:19:59.677Z,30.53
2018-08-03T18:23:03.290Z,30.56
2018-08-03T18:26:08.382Z,30.43
2018-08-03T18:29:14.540Z,30.41
2018-08-03T18:32:18.177Z,30.35
2018-08-03T18:35:25.345Z,30.19
2018-08-03T18:38:29.291Z,30.17
2018-08-03T18:41:33.982Z,30.18
2018-08-03T18:44:37.598Z,30.25
2018-08-03T18:47:43.138Z,30.26
2018-08-03T18:50:47.468Z,30.30
2018-08-03T18:53:51.065Z,30.23
2018-08-03T18:56:54.672Z,30.15
2018-08-03T18:59:58.218Z,30.13
2018-08-03T19:03:03.656Z,30.01
2018-08-03T19:06:11.683Z,29.88
2018-08-03T19:09:23.381Z,29.88
2018-08-03T19:12:32.274Z,29.95
2018-08-03T19:15:50.566Z,29.76
2018-08-03T19:18:56.792Z,29.70
2018-08-03T19:22:02.479Z,29.79
2018-08-03T19:25:15.079Z,29.58
2018-08-03T19:28:23.117Z,29.44
2018-08-03T19:31:28.296Z,29.19
2018-08-03T19:34:47.880Z,29.28
2018-08-03T19:43:13.136Z,29.11
2018-08-03T19:46:24.817Z,28.79
2018-08-03T19:49:30.542Z,28.99
2018-08-03T19:56:09.773Z,28.84
2018-08-03T19:59:21.882Z,28.68
2018-08-03T20:02:28.614Z,28.58
2018-08-03T20:05:32.527Z,28.70
2018-08-03T20:08:41.564Z,28.61
2018-08-03T20:11:49.979Z,28.57
2018-08-03T20:15:01.226Z,28.41
2018-08-03T20:18:13.184Z,28.41
2018-08-03T20:21:22.706Z,28.37
2018-08-03T20:24:28.967Z,28.51
2018-08-03T20:27:38.318Z,28.48
2018-08-03T20:30:45.729Z,28.27
2018-08-03T20:33:55.387Z,28.21
2018-08-03T20:36:59.225Z,28.25
2018-08-03T20:40:18.172Z,28.14
2018-08-03T20:43:27.056Z,28.09
2018-08-03T20:46:33.277Z,28.07
2018-08-03T20:49:46.238Z,28.06
2018-08-03T20:52:50.460Z,28.01
2018-08-03T20:59:13.855Z,27.79
2018-08-03T21:02:22.921Z,27.55
2018-08-03T21:05:35.102Z,27.33
2018-08-03T21:08:41.569Z,27.34
2018-08-03T21:11:52.334Z,27.53
2018-08-03T21:18:15.190Z,27.63
2018-08-03T21:21:30.105Z,27.53
2018-08-03T21:30:24.346Z,27.53
2018-08-03T21:33:38.334Z,26.95
2018-08-03T21:36:46.392Z,26.66
2018-08-03T21:39:56.809Z,26.66
2018-08-03T21:43:01.694Z,26.63
2018-08-03T21:46:29.344Z,26.66
2018-08-03T21:49:34.166Z,26.64
2018-08-03T21:52:51.550Z,26.85
2018-08-03T21:55:56.307Z,27.04
2018-08-03T21:59:24.648Z,27.11
2018-08-03T22:02:37.886Z,26.97
2018-08-03T22:05:52.887Z,26.88
2018-08-03T22:08:56.671Z,27.06
2018-08-03T22:12:02.724Z,26.85
2018-08-03T22:15:06.403Z,26.88
2018-08-03T22:18:11.443Z,26.60
2018-08-03T22:21:15.241Z,25.87
2018-08-03T22:24:21.481Z,25.82
2018-08-03T22:27:28.084Z,26.11
2018-08-03T22:30:33.055Z,26.29
2018-08-03T22:33:36.839Z,26.32
2018-08-03T22:36:42.780Z,26.38
2018-08-03T22:39:46.618Z,26.51
2018-08-03T22:42:52.524Z,26.59
2018-08-03T22:46:01.230Z,26.15
2018-08-03T22:49:06.399Z,25.93
2018-08-03T22:52:12.164Z,26.16
2018-08-03T22:55:18.732Z,26.28
2018-08-03T22:58:23.181Z,26.38
2018-08-03T23:01:27.980Z,26.27
2018-08-03T23:04:32.709Z,26.20
2018-08-03T23:07:36.532Z,25.81
2018-08-03T23:10:40.313Z,25.41
2018-08-03T23:13:45.972Z,25.27
2018-08-03T23:16:49.685Z,25.35
2018-08-03T23:19:53.304Z,25.57
2018-08-03T23:22:58.989Z,25.74
2018-08-03T23:26:03.568Z,25.61
2018-08-03T23:29:07.372Z,25.62
2018-08-03T23:32:11.207Z,25.77
2018-08-03T23:35:18.984Z,25.78
2018-08-03T23:38:24.811Z,25.00
2018-08-03T23:41:36.270Z,25.03
2018-08-03T23:44:45.751Z,25.03
2018-08-03T23:47:52.275Z,25.42
2018-08-03T23:50:56.925Z,25.47
2018-08-03T23:54:00.661Z,25.48
2018-08-03T23:57:08.594Z,25.07
